Flight Track Log - Related Links

Times and Time Zones

All times are in EDT time to prevent confusion due to time zone crossing. See the UAL582 flight status page for this flight to view local times or setup timezone preferences in your user account.

Time Position Orientation Groundspeed Altitude Reporting Facility
EDT Latitude Longitude Course Direction KTS MPH feet Rate Location/Type
Mon 06:06:42 PM 43.6833 -79.6167 270° West 40 46 1,400  Level Toronto Center
Mon 06:07:42 PM 43.7333 -79.5833 26° Northeast 200 230 3,300 2,050 Climbing Toronto Center
Mon 06:08:42 PM 43.7833 -79.5833 360° North 270 311 5,500 1,850 Climbing Toronto Center
Mon 06:09:00 PM 43.7010 -79.9781 277° West  Level FlightAware Approximate
Mon 06:09:42 PM 43.8167 -79.6833 295° West 260 299 7,000  Level Toronto Center
Mon 06:10:00 PM 43.7111 -80.0997 277° West  Level FlightAware Approximate
Mon 06:11:00 PM 43.7171 -80.2217 277° West  Level FlightAware Approximate
Mon 06:12:00 PM 43.7297 -80.3594 277° West  Level FlightAware Approximate
Mon 06:12:42 PM 43.7833 -80.0500 263° West 380 437 14,400  Level Toronto Center
Mon 06:13:00 PM 43.7334 -80.4978 270° West  Level FlightAware Approximate
Mon 06:13:42 PM 43.7667 -80.2167 262° West 400 460 16,700  Level Toronto Center
Mon 06:14:42 PM 43.7500 -80.3500 260° West 410 472 18,400 1,700 Climbing Toronto Center
Mon 06:15:42 PM 43.7500 -80.5333 270° West 430 495 20,100 1,750 Climbing Toronto Center
Mon 06:16:42 PM 43.7167 -80.7000 255° West 450 518 21,900 1,650 Climbing Toronto Center
Mon 06:17:42 PM 43.6500 -80.8500 238° Southwest 450 518 23,400 1,400 Climbing Toronto Center
Mon 06:18:42 PM 43.6167 -81.0333 256° West 460 529 24,700 1,500 Climbing Toronto Center
Mon 06:19:42 PM 43.5833 -81.2000 255° West 460 529 26,400 1,600 Climbing Toronto Center
Mon 06:20:42 PM 43.5500 -81.3667 255° West 450 518 27,900 1,450 Climbing Toronto Center
Mon 06:21:42 PM 43.5167 -81.5167 253° West 450 518 29,300 1,450 Climbing Toronto Center
Mon 06:22:42 PM 43.4833 -81.6833 255° West 450 518 30,800 1,800 Climbing Toronto Center
Mon 06:23:42 PM 43.4500 -81.8667 256° West 440 506 32,900 1,600 Climbing Toronto Center
Mon 06:24:42 PM 43.4000 -82.0000 243° Southwest 430 495 34,000 574 Climbing Toronto Center
Mon 06:25:37 PM 43.3894 -82.1486 264° West 435 501 34,000 52 Level Cleveland Center
Mon 06:26:37 PM 43.3539 -82.2992 252° West 430 495 34,100 50 Climbing Cleveland Center
Mon 06:27:37 PM 43.3225 -82.4553 255° West 430 495 34,100 -50 Level Cleveland Center
Mon 06:28:37 PM 43.2925 -82.6139 255° West 425 489 34,000 -100 Descending Cleveland Center
Mon 06:29:37 PM 43.2606 -82.7697 254° West 425 489 33,900 -550 Descending Cleveland Center
Mon 06:30:37 PM 43.2283 -82.9253 254° West 425 489 32,900 -1,000 Descending Cleveland Center
Mon 06:31:37 PM 43.1981 -83.0808 255° West 430 495 31,900 -950 Descending Cleveland Center
Mon 06:32:37 PM 43.1653 -83.2389 254° West 430 495 31,000 -850 Descending Cleveland Center
Mon 06:33:37 PM 43.1325 -83.3967 254° West 436 502 30,200 -500 Descending Cleveland Center
Mon 06:34:37 PM 43.0992 -83.5603 254° West 436 502 30,000 -100 Descending Cleveland Center
Mon 06:35:37 PM 43.0658 -83.7206 254° West 436 502 30,000  Level Cleveland Center
Mon 06:36:37 PM 43.0319 -83.8836 254° West 436 502 30,000  Level Cleveland Center
Mon 06:37:37 PM 42.9981 -84.0439 254° West 436 502 30,000 -200 Level Cleveland Center
Mon 06:38:37 PM 42.9619 -84.2064 253° West 441 507 29,600 -765 Descending Cleveland Center
Mon 06:40:06 PM 42.9164 -84.4267 254° West 428 493 28,100 -596 Descending Chicago Center
Mon 06:41:08 PM 42.8844 -84.5800 254° West 424 488 28,100 -48 Level Chicago Center
Mon 06:42:10 PM 42.8642 -84.7736 262° West 433 498 28,000 -49 Descending Chicago Center
Mon 06:43:11 PM 42.8472 -84.9331 262° West 428 493 28,000 -49 Level Chicago Center
Mon 06:44:13 PM 42.8297 -85.0942 262° West 429 494 27,900 -528 Descending Chicago Center
Mon 06:45:16 PM 42.8128 -85.2544 262° West 429 494 26,900 -960 Descending Chicago Center
Mon 06:46:18 PM 42.7953 -85.4172 262° West 434 499 25,900 -976 Descending Chicago Center
Mon 06:47:19 PM 42.7725 -85.5756 259° West 428 493 24,900 -976 Descending Chicago Center
Mon 06:48:21 PM 42.7431 -85.7344 256° West 429 494 23,900 -968 Descending Chicago Center
Mon 06:49:23 PM 42.7156 -85.8933 257° West 429 494 22,900 -1,065 Descending Chicago Center
Mon 06:50:25 PM 42.6814 -86.0767 256° West 416 479 21,700 -1,306 Descending Chicago Center
Mon 06:51:27 PM 42.6542 -86.2269 256° West 410 472 20,200 -823 Descending Chicago Center
Mon 06:52:29 PM 42.6256 -86.3736 255° West 403 464 20,000 -97 Descending Chicago Center
Mon 06:53:31 PM 42.5972 -86.5225 256° West 405 466 20,000 -726 Level Chicago Center
Mon 06:54:33 PM 42.5706 -86.6667 256° West 398 458 18,500 -2,081 Descending Chicago Center
Mon 06:55:35 PM 42.5400 -86.8078 254° West 392 451 15,700 -2,710 Descending Chicago Center
Mon 06:56:37 PM 42.5031 -86.9392 249° West 375 432 12,900 -2,758 Descending Chicago Center
Mon 06:57:39 PM 42.4611 -87.0878 249° West 354 407 10,000 -1,452 Descending Chicago Center
Mon 06:58:41 PM 42.4325 -87.1983 251° West 314 361 9,900 -488 Descending Chicago Center
Mon 06:59:42 PM 42.4058 -87.2897 248° West 267 307 9,000 -829 Descending Chicago Center
Mon 07:00:44 PM 42.3686 -87.3781 240° Southwest 270 311 8,200 -823 Descending Chicago Center
Mon 07:01:46 PM 42.3311 -87.4628 239° Southwest 261 300 7,300 -1,113 Descending Chicago Center
Mon 07:02:48 PM 42.2917 -87.5572 241° Southwest 261 300 5,900 -1,113 Descending Chicago Center
Mon 07:03:50 PM 42.2419 -87.6244 225° Southwest 258 297 5,000 -435 Descending Chicago Center
Mon 07:04:52 PM 42.1894 -87.6850 221° Southwest 253 291 5,000 -387 Level Chicago Center
Mon 07:05:54 PM 42.1408 -87.7367 218° Southwest 232 267 4,200 -1,187 Descending Chicago Center
Mon 07:06:23 PM 42.1167 -87.7667 223° Southwest 217 250 3,200 -1,281 Descending Chicago TRACON
Mon 07:07:23 PM 42.0667 -87.8167 217° Southwest 183 211 2,300 -900 Descending Chicago TRACON

Login

Don't have an account? Register now (free) for customized features, flight alerts, and more!